Decoded Metar for PAIW ( in _UNIDENTIFIED) (IATA:N/A) | Meteo·Mobile Aviation Weather
aviador You're here:

PAIW Decoded Metar

in _UNIDENTIFIED
Report Time2019-10-22 12:56:00
UTC Time2019-10-22 13:47:43
Flight Rules vfr VFR
Wind070° at 09 kt
W.Decomp.*RWY 36: 4.8 kt HW 7.6 kt RCW
Visibility9999 m
Phenomena:N/A
Clouds:Few 035 Hf
Expected CloudBase > 800 ft AGL from Temp-Dew spread
CeilingNone
Temp-2°C (ISA -17)
Dew Point-4°C (86% RH)
AAT-7.7°C
QNH1010 hPa
Density Alt-1,893 ft
Elevation23 ft
Report Wrong Elevation
Raw Report
PAIW 221256Z AUTO 07009KT 10SM FEW035 M02/M04 A2982 RMK AO2 SLP098
T10221044 FZRANO=

Extra information for PAIW:More info

Metar Taf Metar & Taf Last 4 Metars F.Rules Stats Wind Profile Meteogram Temp Stats Metar ALERT Operation Metar Decoded Social comments